sensor_id;sensor_type;location;lat;lon;timestamp;P1;durP1;ratioP1;P2;durP2;ratioP2
25213;SDS011;13160;51.834;4.706;2023-03-23T00:00:23;9.02;;;3.50;;
25213;SDS011;13160;51.834;4.706;2023-03-23T00:02:51;9.75;;;3.97;;
25213;SDS011;13160;51.834;4.706;2023-03-23T00:05:19;8.55;;;3.80;;
25213;SDS011;13160;51.834;4.706;2023-03-23T00:07:46;11.23;;;4.18;;
25213;SDS011;13160;51.834;4.706;2023-03-23T00:10:18;8.05;;;4.07;;
25213;SDS011;13160;51.834;4.706;2023-03-23T00:12:45;8.77;;;4.30;;
25213;SDS011;13160;51.834;4.706;2023-03-23T00:15:15;21.77;;;4.63;;
25213;SDS011;13160;51.834;4.706;2023-03-23T00:17:42;7.50;;;3.88;;
25213;SDS011;13160;51.834;4.706;2023-03-23T00:20:10;7.82;;;3.50;;
25213;SDS011;13160;51.834;4.706;2023-03-23T00:22:37;10.25;;;3.90;;
25213;SDS011;13160;51.834;4.706;2023-03-23T00:25:06;8.50;;;4.13;;
25213;SDS011;13160;51.834;4.706;2023-03-23T00:27:35;10.35;;;4.10;;
25213;SDS011;13160;51.834;4.706;2023-03-23T00:30:03;9.38;;;3.88;;
25213;SDS011;13160;51.834;4.706;2023-03-23T00:32:32;11.45;;;3.35;;
25213;SDS011;13160;51.834;4.706;2023-03-23T00:34:59;10.23;;;3.95;;
25213;SDS011;13160;51.834;4.706;2023-03-23T00:37:27;9.30;;;2.90;;
25213;SDS011;13160;51.834;4.706;2023-03-23T00:39:54;9.85;;;3.47;;
25213;SDS011;13160;51.834;4.706;2023-03-23T00:42:22;7.60;;;3.25;;
25213;SDS011;13160;51.834;4.706;2023-03-23T00:44:51;10.05;;;3.47;;
25213;SDS011;13160;51.834;4.706;2023-03-23T00:47:25;9.60;;;3.72;;
25213;SDS011;13160;51.834;4.706;2023-03-23T00:49:52;7.38;;;3.70;;
25213;SDS011;13160;51.834;4.706;2023-03-23T00:52:21;8.27;;;3.38;;
25213;SDS011;13160;51.834;4.706;2023-03-23T00:54:48;6.68;;;3.55;;
25213;SDS011;13160;51.834;4.706;2023-03-23T00:57:15;9.85;;;3.95;;
25213;SDS011;13160;51.834;4.706;2023-03-23T00:59:43;6.00;;;3.67;;
25213;SDS011;13160;51.834;4.706;2023-03-23T01:02:11;8.32;;;3.70;;
25213;SDS011;13160;51.834;4.706;2023-03-23T01:04:39;9.05;;;3.65;;
25213;SDS011;13160;51.834;4.706;2023-03-23T01:07:10;10.40;;;4.30;;
25213;SDS011;13160;51.834;4.706;2023-03-23T01:09:38;7.70;;;3.25;;
25213;SDS011;13160;51.834;4.706;2023-03-23T01:12:10;8.75;;;3.80;;
25213;SDS011;13160;51.834;4.706;2023-03-23T01:14:38;6.70;;;3.42;;
25213;SDS011;13160;51.834;4.706;2023-03-23T01:17:05;7.30;;;3.08;;
25213;SDS011;13160;51.834;4.706;2023-03-23T01:19:34;7.90;;;3.30;;
25213;SDS011;13160;51.834;4.706;2023-03-23T01:22:02;5.72;;;3.00;;
25213;SDS011;13160;51.834;4.706;2023-03-23T01:24:30;7.43;;;3.08;;
25213;SDS011;13160;51.834;4.706;2023-03-23T01:26:57;6.80;;;3.60;;
25213;SDS011;13160;51.834;4.706;2023-03-23T01:29:31;7.30;;;3.47;;
25213;SDS011;13160;51.834;4.706;2023-03-23T01:31:59;8.75;;;3.42;;
25213;SDS011;13160;51.834;4.706;2023-03-23T01:34:27;6.13;;;3.42;;
25213;SDS011;13160;51.834;4.706;2023-03-23T01:36:55;9.23;;;3.63;;
25213;SDS011;13160;51.834;4.706;2023-03-23T01:39:22;7.57;;;3.15;;
25213;SDS011;13160;51.834;4.706;2023-03-23T01:41:50;6.72;;;3.17;;
25213;SDS011;13160;51.834;4.706;2023-03-23T01:47:54;7.32;;;2.78;;
25213;SDS011;13160;51.834;4.706;2023-03-23T01:50:28;8.52;;;3.65;;
25213;SDS011;13160;51.834;4.706;2023-03-23T01:53:02;6.18;;;2.97;;
25213;SDS011;13160;51.834;4.706;2023-03-23T01:55:34;5.90;;;2.92;;
25213;SDS011;13160;51.834;4.706;2023-03-23T01:58:04;5.07;;;3.20;;
25213;SDS011;13160;51.834;4.706;2023-03-23T02:00:33;6.07;;;3.45;;
25213;SDS011;13160;51.834;4.706;2023-03-23T02:03:02;5.53;;;3.03;;
25213;SDS011;13160;51.834;4.706;2023-03-23T02:05:32;6.03;;;3.10;;
25213;SDS011;13160;51.834;4.706;2023-03-23T02:08:06;7.70;;;3.25;;
25213;SDS011;13160;51.834;4.706;2023-03-23T02:10:37;6.13;;;2.90;;
25213;SDS011;13160;51.834;4.706;2023-03-23T02:13:04;5.45;;;2.70;;
25213;SDS011;13160;51.834;4.706;2023-03-23T02:15:46;6.15;;;3.20;;
25213;SDS011;13160;51.834;4.706;2023-03-23T02:18:23;5.88;;;2.85;;
25213;SDS011;13160;51.834;4.706;2023-03-23T02:21:08;8.18;;;3.28;;
25213;SDS011;13160;51.834;4.706;2023-03-23T02:24:26;7.45;;;3.25;;
25213;SDS011;13160;51.834;4.706;2023-03-23T02:27:15;8.40;;;3.65;;
25213;SDS011;13160;51.834;4.706;2023-03-23T02:33:09;8.15;;;2.95;;
25213;SDS011;13160;51.834;4.706;2023-03-23T02:35:56;7.38;;;3.28;;
25213;SDS011;13160;51.834;4.706;2023-03-23T02:38:28;9.80;;;3.42;;
25213;SDS011;13160;51.834;4.706;2023-03-23T02:41:00;7.22;;;2.78;;
25213;SDS011;13160;51.834;4.706;2023-03-23T02:43:31;7.97;;;3.08;;
25213;SDS011;13160;51.834;4.706;2023-03-23T02:46:04;7.35;;;2.88;;
25213;SDS011;13160;51.834;4.706;2023-03-23T02:48:36;7.78;;;2.50;;
25213;SDS011;13160;51.834;4.706;2023-03-23T02:51:07;6.40;;;3.10;;
25213;SDS011;13160;51.834;4.706;2023-03-23T02:53:36;9.35;;;2.97;;
25213;SDS011;13160;51.834;4.706;2023-03-23T02:56:07;6.75;;;2.65;;
25213;SDS011;13160;51.834;4.706;2023-03-23T02:58:36;6.85;;;2.60;;
25213;SDS011;13160;51.834;4.706;2023-03-23T03:04:17;5.97;;;2.38;;
25213;SDS011;13160;51.834;4.706;2023-03-23T03:06:50;7.30;;;2.47;;
25213;SDS011;13160;51.834;4.706;2023-03-23T03:09:31;8.00;;;2.88;;
25213;SDS011;13160;51.834;4.706;2023-03-23T03:12:12;8.00;;;2.70;;
25213;SDS011;13160;51.834;4.706;2023-03-23T03:14:48;5.60;;;2.75;;
25213;SDS011;13160;51.834;4.706;2023-03-23T03:17:23;8.40;;;2.35;;
25213;SDS011;13160;51.834;4.706;2023-03-23T03:19:54;6.40;;;2.60;;
25213;SDS011;13160;51.834;4.706;2023-03-23T03:22:24;5.13;;;2.38;;
25213;SDS011;13160;51.834;4.706;2023-03-23T03:24:55;7.25;;;2.55;;
25213;SDS011;13160;51.834;4.706;2023-03-23T03:27:24;5.65;;;2.35;;
25213;SDS011;13160;51.834;4.706;2023-03-23T03:29:53;8.07;;;2.42;;
25213;SDS011;13160;51.834;4.706;2023-03-23T03:32:26;6.85;;;2.67;;
25213;SDS011;13160;51.834;4.706;2023-03-23T03:35:00;6.75;;;2.22;;
25213;SDS011;13160;51.834;4.706;2023-03-23T03:37:32;4.40;;;2.15;;
25213;SDS011;13160;51.834;4.706;2023-03-23T03:40:02;5.57;;;2.15;;
25213;SDS011;13160;51.834;4.706;2023-03-23T03:42:36;8.23;;;2.70;;
25213;SDS011;13160;51.834;4.706;2023-03-23T03:45:06;9.82;;;2.40;;
25213;SDS011;13160;51.834;4.706;2023-03-23T03:47:35;6.80;;;2.50;;
25213;SDS011;13160;51.834;4.706;2023-03-23T03:50:04;9.45;;;2.08;;
25213;SDS011;13160;51.834;4.706;2023-03-23T03:52:33;9.10;;;2.00;;
25213;SDS011;13160;51.834;4.706;2023-03-23T03:55:00;8.82;;;2.70;;
25213;SDS011;13160;51.834;4.706;2023-03-23T03:57:28;10.93;;;2.78;;
25213;SDS011;13160;51.834;4.706;2023-03-23T03:59:55;7.25;;;2.38;;
25213;SDS011;13160;51.834;4.706;2023-03-23T04:02:23;9.07;;;2.50;;
25213;SDS011;13160;51.834;4.706;2023-03-23T04:04:50;8.65;;;2.30;;
25213;SDS011;13160;51.834;4.706;2023-03-23T04:07:20;10.05;;;2.38;;
25213;SDS011;13160;51.834;4.706;2023-03-23T04:09:51;7.25;;;1.98;;
25213;SDS011;13160;51.834;4.706;2023-03-23T04:12:18;13.40;;;2.83;;
25213;SDS011;13160;51.834;4.706;2023-03-23T04:14:45;8.13;;;2.15;;
25213;SDS011;13160;51.834;4.706;2023-03-23T04:17:13;14.02;;;2.90;;
25213;SDS011;13160;51.834;4.706;2023-03-23T04:19:42;10.90;;;2.40;;
25213;SDS011;13160;51.834;4.706;2023-03-23T04:22:09;11.45;;;2.30;;
25213;SDS011;13160;51.834;4.706;2023-03-23T04:24:38;10.40;;;2.20;;
25213;SDS011;13160;51.834;4.706;2023-03-23T04:27:06;9.48;;;2.58;;
25213;SDS011;13160;51.834;4.706;2023-03-23T04:29:33;10.90;;;2.75;;
25213;SDS011;13160;51.834;4.706;2023-03-23T04:32:01;15.32;;;2.85;;
25213;SDS011;13160;51.834;4.706;2023-03-23T04:34:28;9.80;;;2.40;;
25213;SDS011;13160;51.834;4.706;2023-03-23T04:36:57;15.25;;;3.08;;
25213;SDS011;13160;51.834;4.706;2023-03-23T04:39:25;15.30;;;2.60;;
25213;SDS011;13160;51.834;4.706;2023-03-23T04:41:55;13.70;;;2.90;;
25213;SDS011;13160;51.834;4.706;2023-03-23T04:44:26;12.45;;;2.72;;
25213;SDS011;13160;51.834;4.706;2023-03-23T04:46:54;11.85;;;2.72;;
25213;SDS011;13160;51.834;4.706;2023-03-23T04:49:21;12.20;;;2.65;;
25213;SDS011;13160;51.834;4.706;2023-03-23T04:51:48;11.05;;;2.70;;
25213;SDS011;13160;51.834;4.706;2023-03-23T04:54:17;11.00;;;2.75;;
25213;SDS011;13160;51.834;4.706;2023-03-23T04:56:44;12.57;;;3.13;;
25213;SDS011;13160;51.834;4.706;2023-03-23T04:59:12;12.15;;;2.63;;
25213;SDS011;13160;51.834;4.706;2023-03-23T05:01:40;14.25;;;2.67;;
25213;SDS011;13160;51.834;4.706;2023-03-23T05:04:11;9.07;;;2.33;;
25213;SDS011;13160;51.834;4.706;2023-03-23T05:06:41;13.73;;;2.63;;
25213;SDS011;13160;51.834;4.706;2023-03-23T05:09:10;13.10;;;2.60;;
25213;SDS011;13160;51.834;4.706;2023-03-23T05:11:38;14.10;;;2.80;;
25213;SDS011;13160;51.834;4.706;2023-03-23T05:14:05;11.23;;;2.45;;
25213;SDS011;13160;51.834;4.706;2023-03-23T05:16:34;12.57;;;2.40;;
25213;SDS011;13160;51.834;4.706;2023-03-23T05:19:02;13.35;;;3.17;;
25213;SDS011;13160;51.834;4.706;2023-03-23T05:21:30;12.50;;;2.97;;
25213;SDS011;13160;51.834;4.706;2023-03-23T05:23:57;13.25;;;2.83;;
25213;SDS011;13160;51.834;4.706;2023-03-23T05:26:26;15.23;;;2.47;;
25213;SDS011;13160;51.834;4.706;2023-03-23T05:28:55;10.32;;;2.58;;
25213;SDS011;13160;51.834;4.706;2023-03-23T05:31:22;15.55;;;3.00;;
25213;SDS011;13160;51.834;4.706;2023-03-23T05:33:51;10.70;;;2.28;;
25213;SDS011;13160;51.834;4.706;2023-03-23T05:36:19;12.05;;;2.53;;
25213;SDS011;13160;51.834;4.706;2023-03-23T05:38:48;15.32;;;2.70;;
25213;SDS011;13160;51.834;4.706;2023-03-23T05:41:17;11.93;;;2.75;;
25213;SDS011;13160;51.834;4.706;2023-03-23T05:43:44;7.63;;;2.15;;
25213;SDS011;13160;51.834;4.706;2023-03-23T05:46:11;10.52;;;2.55;;
25213;SDS011;13160;51.834;4.706;2023-03-23T05:48:39;8.38;;;2.33;;
25213;SDS011;13160;51.834;4.706;2023-03-23T05:51:08;10.25;;;2.60;;
25213;SDS011;13160;51.834;4.706;2023-03-23T05:53:35;13.10;;;2.58;;
25213;SDS011;13160;51.834;4.706;2023-03-23T05:56:03;9.27;;;2.30;;
25213;SDS011;13160;51.834;4.706;2023-03-23T05:58:32;13.05;;;3.22;;
25213;SDS011;13160;51.834;4.706;2023-03-23T06:00:59;13.13;;;2.65;;
25213;SDS011;13160;51.834;4.706;2023-03-23T06:03:27;12.52;;;2.97;;
25213;SDS011;13160;51.834;4.706;2023-03-23T06:05:54;13.73;;;2.60;;
25213;SDS011;13160;51.834;4.706;2023-03-23T06:08:22;9.05;;;2.60;;
25213;SDS011;13160;51.834;4.706;2023-03-23T06:10:50;11.60;;;2.92;;
25213;SDS011;13160;51.834;4.706;2023-03-23T06:13:17;11.40;;;2.75;;
25213;SDS011;13160;51.834;4.706;2023-03-23T06:15:44;8.50;;;2.70;;
25213;SDS011;13160;51.834;4.706;2023-03-23T06:18:12;9.60;;;2.33;;
25213;SDS011;13160;51.834;4.706;2023-03-23T06:20:40;10.55;;;3.00;;
25213;SDS011;13160;51.834;4.706;2023-03-23T06:23:09;10.75;;;2.83;;
25213;SDS011;13160;51.834;4.706;2023-03-23T06:25:38;10.15;;;2.45;;
25213;SDS011;13160;51.834;4.706;2023-03-23T06:28:06;12.70;;;2.63;;
25213;SDS011;13160;51.834;4.706;2023-03-23T06:30:34;13.07;;;2.40;;
25213;SDS011;13160;51.834;4.706;2023-03-23T06:33:02;10.35;;;2.70;;
25213;SDS011;13160;51.834;4.706;2023-03-23T06:35:30;15.63;;;2.75;;
25213;SDS011;13160;51.834;4.706;2023-03-23T06:37:57;9.57;;;2.78;;
25213;SDS011;13160;51.834;4.706;2023-03-23T06:40:26;14.77;;;2.72;;
25213;SDS011;13160;51.834;4.706;2023-03-23T06:42:56;13.23;;;3.15;;
25213;SDS011;13160;51.834;4.706;2023-03-23T06:45:24;12.93;;;2.70;;
25213;SDS011;13160;51.834;4.706;2023-03-23T06:47:51;16.15;;;2.70;;
25213;SDS011;13160;51.834;4.706;2023-03-23T06:50:18;12.93;;;2.88;;
25213;SDS011;13160;51.834;4.706;2023-03-23T06:52:46;11.32;;;2.55;;
25213;SDS011;13160;51.834;4.706;2023-03-23T06:55:14;12.63;;;2.90;;
25213;SDS011;13160;51.834;4.706;2023-03-23T06:57:42;15.68;;;2.90;;
25213;SDS011;13160;51.834;4.706;2023-03-23T07:00:12;14.18;;;2.67;;
25213;SDS011;13160;51.834;4.706;2023-03-23T07:02:40;11.73;;;2.65;;
25213;SDS011;13160;51.834;4.706;2023-03-23T07:05:08;11.10;;;2.47;;
25213;SDS011;13160;51.834;4.706;2023-03-23T07:07:35;10.07;;;2.55;;
25213;SDS011;13160;51.834;4.706;2023-03-23T07:10:04;10.85;;;2.40;;
25213;SDS011;13160;51.834;4.706;2023-03-23T07:12:34;12.95;;;2.63;;
25213;SDS011;13160;51.834;4.706;2023-03-23T07:15:02;9.40;;;2.80;;
25213;SDS011;13160;51.834;4.706;2023-03-23T07:17:32;11.88;;;2.67;;
25213;SDS011;13160;51.834;4.706;2023-03-23T07:20:00;15.35;;;3.85;;
25213;SDS011;13160;51.834;4.706;2023-03-23T07:22:27;13.32;;;3.90;;
25213;SDS011;13160;51.834;4.706;2023-03-23T07:24:55;10.63;;;3.30;;
25213;SDS011;13160;51.834;4.706;2023-03-23T07:27:22;12.40;;;3.20;;
25213;SDS011;13160;51.834;4.706;2023-03-23T07:29:49;10.15;;;3.30;;
25213;SDS011;13160;51.834;4.706;2023-03-23T07:32:17;13.43;;;3.17;;
25213;SDS011;13160;51.834;4.706;2023-03-23T07:34:46;16.33;;;3.88;;
25213;SDS011;13160;51.834;4.706;2023-03-23T07:37:13;11.18;;;3.22;;
25213;SDS011;13160;51.834;4.706;2023-03-23T07:39:41;18.83;;;4.03;;
25213;SDS011;13160;51.834;4.706;2023-03-23T07:42:08;16.92;;;3.25;;
25213;SDS011;13160;51.834;4.706;2023-03-23T07:44:36;12.18;;;3.08;;
25213;SDS011;13160;51.834;4.706;2023-03-23T07:47:03;12.23;;;3.03;;
25213;SDS011;13160;51.834;4.706;2023-03-23T07:49:30;13.27;;;3.00;;
25213;SDS011;13160;51.834;4.706;2023-03-23T07:51:59;15.02;;;3.38;;
25213;SDS011;13160;51.834;4.706;2023-03-23T07:54:28;11.73;;;3.15;;
25213;SDS011;13160;51.834;4.706;2023-03-23T07:56:56;16.25;;;3.10;;
25213;SDS011;13160;51.834;4.706;2023-03-23T07:59:23;14.13;;;3.15;;
25213;SDS011;13160;51.834;4.706;2023-03-23T08:01:51;15.80;;;3.47;;
25213;SDS011;13160;51.834;4.706;2023-03-23T08:04:18;14.05;;;3.20;;
25213;SDS011;13160;51.834;4.706;2023-03-23T08:06:45;10.02;;;2.75;;
25213;SDS011;13160;51.834;4.706;2023-03-23T08:09:14;10.15;;;2.97;;
25213;SDS011;13160;51.834;4.706;2023-03-23T08:11:41;13.95;;;2.90;;
25213;SDS011;13160;51.834;4.706;2023-03-23T08:14:09;17.02;;;2.60;;
25213;SDS011;13160;51.834;4.706;2023-03-23T08:16:36;7.70;;;2.10;;
25213;SDS011;13160;51.834;4.706;2023-03-23T08:19:04;9.98;;;2.50;;
25213;SDS011;13160;51.834;4.706;2023-03-23T08:21:31;9.00;;;2.05;;
25213;SDS011;13160;51.834;4.706;2023-03-23T08:24:00;8.38;;;2.25;;
25213;SDS011;13160;51.834;4.706;2023-03-23T08:26:29;11.60;;;2.40;;
25213;SDS011;13160;51.834;4.706;2023-03-23T08:28:56;8.95;;;2.20;;
25213;SDS011;13160;51.834;4.706;2023-03-23T08:31:23;10.57;;;2.55;;
25213;SDS011;13160;51.834;4.706;2023-03-23T08:33:52;11.63;;;2.85;;
25213;SDS011;13160;51.834;4.706;2023-03-23T08:36:21;10.23;;;2.30;;
25213;SDS011;13160;51.834;4.706;2023-03-23T08:38:49;13.80;;;2.80;;
25213;SDS011;13160;51.834;4.706;2023-03-23T08:41:18;9.35;;;2.10;;
25213;SDS011;13160;51.834;4.706;2023-03-23T08:43:46;8.30;;;2.10;;
25213;SDS011;13160;51.834;4.706;2023-03-23T08:46:13;9.85;;;1.98;;
25213;SDS011;13160;51.834;4.706;2023-03-23T08:48:41;8.98;;;1.88;;
25213;SDS011;13160;51.834;4.706;2023-03-23T08:51:10;15.02;;;2.40;;
25213;SDS011;13160;51.834;4.706;2023-03-23T08:53:38;9.68;;;2.67;;
25213;SDS011;13160;51.834;4.706;2023-03-23T08:56:06;11.55;;;2.13;;
25213;SDS011;13160;51.834;4.706;2023-03-23T08:58:37;10.07;;;1.92;;
25213;SDS011;13160;51.834;4.706;2023-03-23T09:01:07;15.77;;;2.28;;
25213;SDS011;13160;51.834;4.706;2023-03-23T09:03:36;10.00;;;2.00;;
25213;SDS011;13160;51.834;4.706;2023-03-23T09:06:05;10.45;;;2.03;;
25213;SDS011;13160;51.834;4.706;2023-03-23T09:08:34;10.98;;;2.25;;
25213;SDS011;13160;51.834;4.706;2023-03-23T09:11:02;13.75;;;2.80;;
25213;SDS011;13160;51.834;4.706;2023-03-23T09:13:32;11.30;;;2.53;;
25213;SDS011;13160;51.834;4.706;2023-03-23T09:16:00;11.68;;;2.70;;
25213;SDS011;13160;51.834;4.706;2023-03-23T09:18:29;8.23;;;2.30;;
25213;SDS011;13160;51.834;4.706;2023-03-23T09:20:57;12.50;;;2.55;;
25213;SDS011;13160;51.834;4.706;2023-03-23T09:23:26;10.27;;;2.25;;
25213;SDS011;13160;51.834;4.706;2023-03-23T09:25:54;14.68;;;2.42;;
25213;SDS011;13160;51.834;4.706;2023-03-23T09:28:21;11.35;;;2.00;;
25213;SDS011;13160;51.834;4.706;2023-03-23T09:30:48;16.40;;;2.47;;
25213;SDS011;13160;51.834;4.706;2023-03-23T09:33:16;14.65;;;2.85;;
25213;SDS011;13160;51.834;4.706;2023-03-23T09:35:45;14.57;;;3.38;;
25213;SDS011;13160;51.834;4.706;2023-03-23T09:38:13;18.10;;;3.28;;
25213;SDS011;13160;51.834;4.706;2023-03-23T09:40:43;12.48;;;2.25;;
25213;SDS011;13160;51.834;4.706;2023-03-23T09:46:21;16.05;;;3.47;;
25213;SDS011;13160;51.834;4.706;2023-03-23T09:49:08;14.05;;;3.42;;
25213;SDS011;13160;51.834;4.706;2023-03-23T09:51:43;18.25;;;3.60;;
25213;SDS011;13160;51.834;4.706;2023-03-23T09:54:16;13.90;;;3.05;;
25213;SDS011;13160;51.834;4.706;2023-03-23T09:56:48;18.83;;;3.58;;
25213;SDS011;13160;51.834;4.706;2023-03-23T09:59:19;14.65;;;2.83;;
25213;SDS011;13160;51.834;4.706;2023-03-23T10:01:51;11.38;;;2.92;;
25213;SDS011;13160;51.834;4.706;2023-03-23T10:04:25;19.80;;;3.90;;
25213;SDS011;13160;51.834;4.706;2023-03-23T10:07:06;17.50;;;3.40;;
25213;SDS011;13160;51.834;4.706;2023-03-23T10:09:37;17.08;;;3.40;;
25213;SDS011;13160;51.834;4.706;2023-03-23T10:12:09;16.65;;;3.63;;
25213;SDS011;13160;51.834;4.706;2023-03-23T10:14:51;16.73;;;3.25;;
25213;SDS011;13160;51.834;4.706;2023-03-23T10:17:33;17.85;;;4.20;;
25213;SDS011;13160;51.834;4.706;2023-03-23T10:20:13;17.13;;;3.47;;
25213;SDS011;13160;51.834;4.706;2023-03-23T10:22:52;14.75;;;2.90;;
25213;SDS011;13160;51.834;4.706;2023-03-23T10:25:29;12.65;;;3.10;;
25213;SDS011;13160;51.834;4.706;2023-03-23T10:28:03;16.85;;;3.42;;
25213;SDS011;13160;51.834;4.706;2023-03-23T10:30:36;14.65;;;3.67;;
25213;SDS011;13160;51.834;4.706;2023-03-23T10:33:09;15.82;;;3.28;;
25213;SDS011;13160;51.834;4.706;2023-03-23T10:35:45;14.27;;;2.90;;
25213;SDS011;13160;51.834;4.706;2023-03-23T10:38:22;12.43;;;3.22;;
25213;SDS011;13160;51.834;4.706;2023-03-23T10:40:55;16.83;;;3.30;;
25213;SDS011;13160;51.834;4.706;2023-03-23T10:43:25;13.15;;;3.30;;
25213;SDS011;13160;51.834;4.706;2023-03-23T10:45:55;16.15;;;3.30;;
25213;SDS011;13160;51.834;4.706;2023-03-23T10:48:28;20.00;;;3.47;;
25213;SDS011;13160;51.834;4.706;2023-03-23T10:50:58;19.58;;;3.70;;
25213;SDS011;13160;51.834;4.706;2023-03-23T10:53:31;18.38;;;3.25;;
25213;SDS011;13160;51.834;4.706;2023-03-23T10:56:02;14.80;;;3.03;;
25213;SDS011;13160;51.834;4.706;2023-03-23T10:58:32;16.77;;;3.67;;
25213;SDS011;13160;51.834;4.706;2023-03-23T11:01:01;20.35;;;3.97;;
25213;SDS011;13160;51.834;4.706;2023-03-23T11:03:39;16.00;;;3.70;;
25213;SDS011;13160;51.834;4.706;2023-03-23T11:06:09;14.10;;;3.30;;
25213;SDS011;13160;51.834;4.706;2023-03-23T11:08:50;14.43;;;2.90;;
25213;SDS011;13160;51.834;4.706;2023-03-23T11:11:25;13.40;;;2.72;;
25213;SDS011;13160;51.834;4.706;2023-03-23T11:13:58;18.85;;;3.50;;
25213;SDS011;13160;51.834;4.706;2023-03-23T11:16:28;17.35;;;3.90;;
25213;SDS011;13160;51.834;4.706;2023-03-23T11:18:58;15.70;;;3.20;;
25213;SDS011;13160;51.834;4.706;2023-03-23T11:21:26;15.43;;;3.40;;
25213;SDS011;13160;51.834;4.706;2023-03-23T11:23:57;13.30;;;3.17;;
25213;SDS011;13160;51.834;4.706;2023-03-23T11:26:26;14.43;;;2.97;;
25213;SDS011;13160;51.834;4.706;2023-03-23T11:28:56;10.98;;;2.45;;
25213;SDS011;13160;51.834;4.706;2023-03-23T11:31:28;14.75;;;2.65;;
25213;SDS011;13160;51.834;4.706;2023-03-23T11:33:58;16.75;;;2.80;;
25213;SDS011;13160;51.834;4.706;2023-03-23T11:36:30;10.90;;;2.20;;
25213;SDS011;13160;51.834;4.706;2023-03-23T11:39:02;11.35;;;2.65;;
25213;SDS011;13160;51.834;4.706;2023-03-23T11:41:43;10.05;;;2.92;;
25213;SDS011;13160;51.834;4.706;2023-03-23T11:44:10;11.35;;;2.03;;
25213;SDS011;13160;51.834;4.706;2023-03-23T11:46:40;10.75;;;2.47;;
25213;SDS011;13160;51.834;4.706;2023-03-23T11:49:18;11.93;;;2.70;;
25213;SDS011;13160;51.834;4.706;2023-03-23T11:51:58;7.18;;;2.08;;
25213;SDS011;13160;51.834;4.706;2023-03-23T11:54:36;10.15;;;2.58;;
25213;SDS011;13160;51.834;4.706;2023-03-23T11:57:10;13.18;;;2.92;;
25213;SDS011;13160;51.834;4.706;2023-03-23T11:59:39;8.63;;;2.42;;
25213;SDS011;13160;51.834;4.706;2023-03-23T12:02:23;9.70;;;2.92;;
25213;SDS011;13160;51.834;4.706;2023-03-23T12:05:20;8.13;;;2.53;;
25213;SDS011;13160;51.834;4.706;2023-03-23T12:08:05;14.55;;;3.00;;
25213;SDS011;13160;51.834;4.706;2023-03-23T12:10:50;9.90;;;2.65;;
25213;SDS011;13160;51.834;4.706;2023-03-23T12:13:33;9.25;;;2.60;;
25213;SDS011;13160;51.834;4.706;2023-03-23T12:16:23;7.15;;;2.28;;
25213;SDS011;13160;51.834;4.706;2023-03-23T12:19:01;9.50;;;2.45;;
25213;SDS011;13160;51.834;4.706;2023-03-23T12:21:39;9.27;;;2.55;;
25213;SDS011;13160;51.834;4.706;2023-03-23T12:24:19;16.52;;;2.90;;
25213;SDS011;13160;51.834;4.706;2023-03-23T12:27:14;12.68;;;2.60;;
25213;SDS011;13160;51.834;4.706;2023-03-23T12:29:53;15.05;;;3.00;;
25213;SDS011;13160;51.834;4.706;2023-03-23T12:32:42;10.35;;;2.33;;
25213;SDS011;13160;51.834;4.706;2023-03-23T12:35:27;10.15;;;2.33;;
25213;SDS011;13160;51.834;4.706;2023-03-23T12:38:16;13.00;;;3.22;;
25213;SDS011;13160;51.834;4.706;2023-03-23T12:41:05;10.82;;;2.40;;
25213;SDS011;13160;51.834;4.706;2023-03-23T12:43:47;13.73;;;2.63;;
25213;SDS011;13160;51.834;4.706;2023-03-23T12:46:33;12.10;;;2.60;;
25213;SDS011;13160;51.834;4.706;2023-03-23T12:49:44;11.68;;;2.58;;
25213;SDS011;13160;51.834;4.706;2023-03-23T12:52:16;11.75;;;3.15;;
25213;SDS011;13160;51.834;4.706;2023-03-23T12:54:49;12.48;;;3.30;;
25213;SDS011;13160;51.834;4.706;2023-03-23T12:57:23;10.70;;;2.28;;
25213;SDS011;13160;51.834;4.706;2023-03-23T13:00:02;10.40;;;2.72;;
25213;SDS011;13160;51.834;4.706;2023-03-23T13:02:39;9.70;;;2.08;;
25213;SDS011;13160;51.834;4.706;2023-03-23T13:05:12;13.70;;;2.90;;
25213;SDS011;13160;51.834;4.706;2023-03-23T13:07:56;11.80;;;2.58;;
25213;SDS011;13160;51.834;4.706;2023-03-23T13:10:27;11.68;;;2.50;;
25213;SDS011;13160;51.834;4.706;2023-03-23T13:12:59;11.73;;;2.67;;
25213;SDS011;13160;51.834;4.706;2023-03-23T13:15:31;8.10;;;2.25;;
25213;SDS011;13160;51.834;4.706;2023-03-23T13:18:12;10.07;;;2.08;;
25213;SDS011;13160;51.834;4.706;2023-03-23T13:20:50;10.07;;;2.53;;
25213;SDS011;13160;51.834;4.706;2023-03-23T13:23:28;12.32;;;2.30;;
25213;SDS011;13160;51.834;4.706;2023-03-23T13:25:59;8.90;;;2.03;;
25213;SDS011;13160;51.834;4.706;2023-03-23T13:28:29;12.98;;;2.90;;
25213;SDS011;13160;51.834;4.706;2023-03-23T13:31:01;9.02;;;2.22;;
25213;SDS011;13160;51.834;4.706;2023-03-23T13:33:31;8.98;;;2.03;;
25213;SDS011;13160;51.834;4.706;2023-03-23T13:36:07;10.93;;;2.25;;
25213;SDS011;13160;51.834;4.706;2023-03-23T13:38:37;14.90;;;2.50;;
25213;SDS011;13160;51.834;4.706;2023-03-23T13:41:06;7.47;;;2.33;;
25213;SDS011;13160;51.834;4.706;2023-03-23T13:43:38;12.77;;;2.60;;
25213;SDS011;13160;51.834;4.706;2023-03-23T13:46:11;8.80;;;2.58;;
25213;SDS011;13160;51.834;4.706;2023-03-23T13:49:01;13.02;;;2.63;;
25213;SDS011;13160;51.834;4.706;2023-03-23T13:51:52;9.18;;;2.65;;
25213;SDS011;13160;51.834;4.706;2023-03-23T13:54:41;11.65;;;2.78;;
25213;SDS011;13160;51.834;4.706;2023-03-23T13:57:24;12.60;;;2.42;;
25213;SDS011;13160;51.834;4.706;2023-03-23T14:00:11;15.45;;;2.47;;
25213;SDS011;13160;51.834;4.706;2023-03-23T14:03:04;13.57;;;2.90;;
25213;SDS011;13160;51.834;4.706;2023-03-23T14:05:40;11.77;;;2.83;;
25213;SDS011;13160;51.834;4.706;2023-03-23T14:11:09;8.07;;;2.28;;
25213;SDS011;13160;51.834;4.706;2023-03-23T14:13:42;16.15;;;3.17;;
25213;SDS011;13160;51.834;4.706;2023-03-23T14:16:16;13.68;;;2.72;;
25213;SDS011;13160;51.834;4.706;2023-03-23T14:18:51;11.15;;;2.33;;
25213;SDS011;13160;51.834;4.706;2023-03-23T14:21:22;10.85;;;2.40;;
25213;SDS011;13160;51.834;4.706;2023-03-23T14:23:59;11.00;;;2.38;;
25213;SDS011;13160;51.834;4.706;2023-03-23T14:26:33;13.57;;;2.60;;
25213;SDS011;13160;51.834;4.706;2023-03-23T14:29:03;13.27;;;2.92;;
25213;SDS011;13160;51.834;4.706;2023-03-23T14:31:32;10.10;;;2.08;;
25213;SDS011;13160;51.834;4.706;2023-03-23T14:34:03;11.00;;;3.15;;
25213;SDS011;13160;51.834;4.706;2023-03-23T14:36:36;9.45;;;2.55;;
25213;SDS011;13160;51.834;4.706;2023-03-23T14:39:04;12.20;;;2.50;;
25213;SDS011;13160;51.834;4.706;2023-03-23T14:41:47;13.65;;;2.90;;
25213;SDS011;13160;51.834;4.706;2023-03-23T14:44:17;14.07;;;2.47;;
25213;SDS011;13160;51.834;4.706;2023-03-23T14:46:57;13.82;;;2.83;;
25213;SDS011;13160;51.834;4.706;2023-03-23T14:49:31;10.73;;;2.47;;
25213;SDS011;13160;51.834;4.706;2023-03-23T14:52:03;12.18;;;2.65;;
25213;SDS011;13160;51.834;4.706;2023-03-23T14:54:37;13.13;;;3.22;;
25213;SDS011;13160;51.834;4.706;2023-03-23T14:57:10;12.55;;;2.83;;
25213;SDS011;13160;51.834;4.706;2023-03-23T14:59:40;15.82;;;2.83;;
25213;SDS011;13160;51.834;4.706;2023-03-23T15:02:12;12.55;;;3.22;;
25213;SDS011;13160;51.834;4.706;2023-03-23T15:04:45;13.98;;;3.42;;
25213;SDS011;13160;51.834;4.706;2023-03-23T15:07:17;11.07;;;2.60;;
25213;SDS011;13160;51.834;4.706;2023-03-23T15:09:51;10.80;;;2.95;;
25213;SDS011;13160;51.834;4.706;2023-03-23T15:12:20;13.32;;;2.67;;
25213;SDS011;13160;51.834;4.706;2023-03-23T15:14:52;20.75;;;3.55;;
25213;SDS011;13160;51.834;4.706;2023-03-23T15:17:24;14.60;;;3.55;;
25213;SDS011;13160;51.834;4.706;2023-03-23T15:19:56;16.88;;;3.08;;